עמוד ראשי
METAR-TAF:

METAR-TAF

שדות תעופה :

Retalhuleu, גואטמלה

קו רוחב: 14-32N, קו אורך: 091-40W, גובה: 239מטר

תצפית מזג אוויר נוכחית

הדו"ח נערך לפני 5 שעות ו 9דקות, בשעה 00:00 UTC
רוח רגועה
טמפרטורת 27 צלסיוס
לחות 94%
לחץ 1012 hPa
ראות 10 קילומטר או יותר
עננים בינוניים בגובה 20000רגל

METAR: MGRT 250000Z 00000KT CAVOK 27/26 Q1012 A2988 BKN200 VOL. STA MARIA Y SANTIAGUITO EN ACTIVIDAD

זמן: 23:09 (05:09 UTC)


TAF: חסר

תצפיות ותחזיות מזג אוויר לגבי יותר מ- 4,000 שדות תעופה ברחבי העולם. דוחות METAR ו- TAF.

התחנות הזמינות מסומנות בנקודות צהובות ואדומות על גבי המפה.

העבר את העכבר לנקודה הצבעונית על מנת לראות את שם התחנה.

לאחר מכן, לחץ כדי לראות את תוכן ואת תחזיות מזג האוויר.

כדי לשנות את המפה: לחץ על הכפתורים הירוקים עם הפלוס השחור כדי להתקרב; על הכפתור הירוק עם המקף כדי להתרחק; או בחיצים הירוקים למפות סמוכות.


METAR-TAF: